sensor_id;sensor_type;location;lat;lon;timestamp;pressure;altitude;pressure_sealevel;temperature;humidity
40205;BME280;26963;42.666;23.366;2022-09-20T00:01:06;95030.09;;;14.18;47.33
40205;BME280;26963;42.666;23.366;2022-09-20T00:03:34;95019.19;;;14.15;47.23
40205;BME280;26963;42.666;23.366;2022-09-20T00:06:01;94974.91;;;13.72;47.53
40205;BME280;26963;42.666;23.366;2022-09-20T00:08:27;95035.16;;;14.11;47.97
40205;BME280;26963;42.666;23.366;2022-09-20T00:11:01;95033.41;;;14.07;47.95
40205;BME280;26963;42.666;23.366;2022-09-20T00:13:28;95025.78;;;14.00;47.14
40205;BME280;26963;42.666;23.366;2022-09-20T00:15:54;94956.75;;;13.46;47.56
40205;BME280;26963;42.666;23.366;2022-09-20T00:18:22;95036.00;;;13.80;47.58
40205;BME280;26963;42.666;23.366;2022-09-20T00:20:52;95028.06;;;13.75;47.47
40205;BME280;26963;42.666;23.366;2022-09-20T00:23:18;95028.69;;;13.72;47.71
40205;BME280;26963;42.666;23.366;2022-09-20T00:25:52;95001.72;;;13.54;47.77
40205;BME280;26963;42.666;23.366;2022-09-20T00:28:18;94969.47;;;13.32;48.03
40205;BME280;26963;42.666;23.366;2022-09-20T00:30:44;95014.66;;;13.52;48.29
40205;BME280;26963;42.666;23.366;2022-09-20T00:33:10;95028.97;;;13.62;48.33
40205;BME280;26963;42.666;23.366;2022-09-20T00:35:36;94978.16;;;13.29;48.43
40205;BME280;26963;42.666;23.366;2022-09-20T00:38:04;94984.16;;;13.26;48.58
40205;BME280;26963;42.666;23.366;2022-09-20T00:40:30;94976.09;;;13.26;48.58
40205;BME280;26963;42.666;23.366;2022-09-20T00:42:55;94976.34;;;13.15;48.53
40205;BME280;26963;42.666;23.366;2022-09-20T00:45:28;95011.16;;;13.43;48.53
40205;BME280;26963;42.666;23.366;2022-09-20T00:50:36;95020.03;;;13.30;48.89
40205;BME280;26963;42.666;23.366;2022-09-20T00:56:08;95000.28;;;13.03;49.00
40205;BME280;26963;42.666;23.366;2022-09-20T00:58:38;95026.59;;;13.15;49.32
40205;BME280;26963;42.666;23.366;2022-09-20T01:01:08;95026.16;;;13.21;49.02
40205;BME280;26963;42.666;23.366;2022-09-20T01:03:35;94972.94;;;12.78;49.38
40205;BME280;26963;42.666;23.366;2022-09-20T01:06:06;95045.44;;;13.24;48.73
40205;BME280;26963;42.666;23.366;2022-09-20T01:08:35;94975.63;;;13.01;48.57
40205;BME280;26963;42.666;23.366;2022-09-20T01:11:02;94965.63;;;12.93;48.45
40205;BME280;26963;42.666;23.366;2022-09-20T01:13:30;95020.66;;;13.27;48.48
40205;BME280;26963;42.666;23.366;2022-09-20T01:15:56;95033.06;;;13.36;48.32
40205;BME280;26963;42.666;23.366;2022-09-20T01:18:25;95027.81;;;13.31;47.78
40205;BME280;26963;42.666;23.366;2022-09-20T01:20:52;95039.75;;;13.39;47.53
40205;BME280;26963;42.666;23.366;2022-09-20T01:29:20;95025.19;;;13.40;47.07
40205;BME280;26963;42.666;23.366;2022-09-20T01:31:57;94989.78;;;13.15;47.34
40205;BME280;26963;42.666;23.366;2022-09-20T01:35:01;94969.13;;;13.02;47.10
40205;BME280;26963;42.666;23.366;2022-09-20T01:37:46;95009.91;;;13.27;47.14
40205;BME280;26963;42.666;23.366;2022-09-20T01:45:42;94964.16;;;12.64;47.24
40205;BME280;26963;42.666;23.366;2022-09-20T01:48:34;95016.53;;;12.98;47.40
40205;BME280;26963;42.666;23.366;2022-09-20T01:54:16;95032.75;;;12.93;47.80
40205;BME280;26963;42.666;23.366;2022-09-20T02:10:34;95016.06;;;12.59;49.17
40205;BME280;26963;42.666;23.366;2022-09-20T02:32:44;95011.09;;;12.52;49.81
40205;BME280;26963;42.666;23.366;2022-09-20T02:43:53;95032.78;;;12.42;49.90
40205;BME280;26963;42.666;23.366;2022-09-20T02:51:50;95017.53;;;12.29;50.18
40205;BME280;26963;42.666;23.366;2022-09-20T02:57:22;95024.09;;;12.22;50.81
40205;BME280;26963;42.666;23.366;2022-09-20T03:00:09;94995.66;;;11.94;51.36
40205;BME280;26963;42.666;23.366;2022-09-20T03:13:47;95036.22;;;12.06;52.59
40205;BME280;26963;42.666;23.366;2022-09-20T03:16:33;95040.56;;;12.02;52.67
40205;BME280;26963;42.666;23.366;2022-09-20T03:19:20;95026.88;;;12.03;52.42
40205;BME280;26963;42.666;23.366;2022-09-20T03:24:57;95042.66;;;12.05;52.45
40205;BME280;26963;42.666;23.366;2022-09-20T03:32:59;95048.91;;;12.00;53.18
40205;BME280;26963;42.666;23.366;2022-09-20T03:44:09;95045.13;;;11.87;52.86
40205;BME280;26963;42.666;23.366;2022-09-20T03:46:44;95002.81;;;11.56;52.71
40205;BME280;26963;42.666;23.366;2022-09-20T03:52:27;94997.03;;;11.49;52.77
40205;BME280;26963;42.666;23.366;2022-09-20T04:01:34;95041.53;;;11.78;52.33
40205;BME280;26963;42.666;23.366;2022-09-20T04:03:52;95045.31;;;11.77;52.44
40205;BME280;26963;42.666;23.366;2022-09-20T04:12:19;95001.97;;;11.42;52.05
40205;BME280;26963;42.666;23.366;2022-09-20T04:15:00;95032.59;;;11.69;52.12
40205;BME280;26963;42.666;23.366;2022-09-20T04:20:26;95070.53;;;11.90;51.89
40205;BME280;26963;42.666;23.366;2022-09-20T04:22:57;95061.88;;;11.79;51.51
40205;BME280;26963;42.666;23.366;2022-09-20T04:25:41;95077.31;;;12.01;51.58
40205;BME280;26963;42.666;23.366;2022-09-20T04:30:42;95065.38;;;11.94;51.59
40205;BME280;26963;42.666;23.366;2022-09-20T04:33:25;95033.00;;;11.76;51.56
40205;BME280;26963;42.666;23.366;2022-09-20T04:41:59;95090.75;;;12.15;51.60
40205;BME280;26963;42.666;23.366;2022-09-20T04:50:37;95094.63;;;12.23;52.06
40205;BME280;26963;42.666;23.366;2022-09-20T04:58:37;95112.31;;;12.24;51.99
40205;BME280;26963;42.666;23.366;2022-09-20T05:15:42;95097.19;;;12.42;51.58
40205;BME280;26963;42.666;23.366;2022-09-20T05:18:47;95111.69;;;12.41;51.21
40205;BME280;26963;42.666;23.366;2022-09-20T05:24:22;95107.63;;;12.44;51.41
40205;BME280;26963;42.666;23.366;2022-09-20T05:33:00;95106.13;;;12.51;51.71
40205;BME280;26963;42.666;23.366;2022-09-20T05:38:46;95111.88;;;12.59;51.42
40205;BME280;26963;42.666;23.366;2022-09-20T05:41:39;95102.75;;;12.60;51.20
40205;BME280;26963;42.666;23.366;2022-09-20T05:56:04;95011.19;;;11.97;51.39
40205;BME280;26963;42.666;23.366;2022-09-20T06:01:33;95052.47;;;12.23;51.57
40205;BME280;26963;42.666;23.366;2022-09-20T06:06:58;95061.44;;;12.33;51.07
40205;BME280;26963;42.666;23.366;2022-09-20T06:12:14;95119.34;;;12.76;50.73
40205;BME280;26963;42.666;23.366;2022-09-20T06:14:50;95111.94;;;12.81;50.93
40205;BME280;26963;42.666;23.366;2022-09-20T06:17:26;95122.00;;;12.89;50.49
40205;BME280;26963;42.666;23.366;2022-09-20T06:20:12;95089.72;;;12.67;50.33
40205;BME280;26963;42.666;23.366;2022-09-20T06:22:48;95110.13;;;12.91;50.11
40205;BME280;26963;42.666;23.366;2022-09-20T06:27:53;95119.44;;;13.07;49.89
40205;BME280;26963;42.666;23.366;2022-09-20T06:30:25;95102.75;;;13.33;49.51
40205;BME280;26963;42.666;23.366;2022-09-20T06:32:57;95113.25;;;13.89;47.84
40205;BME280;26963;42.666;23.366;2022-09-20T06:35:27;95120.78;;;14.49;46.95
40205;BME280;26963;42.666;23.366;2022-09-20T06:38:11;95109.16;;;14.98;46.02
40205;BME280;26963;42.666;23.366;2022-09-20T06:40:56;95079.69;;;15.45;44.28
40205;BME280;26963;42.666;23.366;2022-09-20T06:43:47;95087.59;;;16.24;43.01
40205;BME280;26963;42.666;23.366;2022-09-20T06:46:14;95107.75;;;16.87;41.85
40205;BME280;26963;42.666;23.366;2022-09-20T06:48:40;95045.28;;;17.09;40.68
40205;BME280;26963;42.666;23.366;2022-09-20T06:51:07;95100.56;;;17.88;39.23
40205;BME280;26963;42.666;23.366;2022-09-20T06:53:36;95098.63;;;18.22;38.05
40205;BME280;26963;42.666;23.366;2022-09-20T06:56:07;95101.34;;;18.59;36.91
40205;BME280;26963;42.666;23.366;2022-09-20T06:58:33;95058.69;;;18.56;36.48
40205;BME280;26963;42.666;23.366;2022-09-20T07:00:59;95110.44;;;19.16;36.20
40205;BME280;26963;42.666;23.366;2022-09-20T07:03:24;95104.53;;;19.67;35.15
40205;BME280;26963;42.666;23.366;2022-09-20T07:05:50;95067.03;;;19.85;33.95
40205;BME280;26963;42.666;23.366;2022-09-20T07:08:19;95071.50;;;20.42;33.04
40205;BME280;26963;42.666;23.366;2022-09-20T07:10:44;95119.25;;;21.26;32.14
40205;BME280;26963;42.666;23.366;2022-09-20T07:13:10;95065.34;;;21.51;31.04
40205;BME280;26963;42.666;23.366;2022-09-20T07:15:38;95092.84;;;22.09;30.49
40205;BME280;26963;42.666;23.366;2022-09-20T07:18:11;95110.47;;;22.58;29.51
40205;BME280;26963;42.666;23.366;2022-09-20T07:20:37;95033.41;;;22.64;29.11
40205;BME280;26963;42.666;23.366;2022-09-20T07:23:02;95108.59;;;23.76;28.09
40205;BME280;26963;42.666;23.366;2022-09-20T07:25:31;95100.03;;;24.61;27.08
40205;BME280;26963;42.666;23.366;2022-09-20T07:27:57;95067.13;;;25.05;26.11
40205;BME280;26963;42.666;23.366;2022-09-20T07:30:22;95061.53;;;25.58;25.03
40205;BME280;26963;42.666;23.366;2022-09-20T07:33:06;95105.19;;;26.71;24.14
40205;BME280;26963;42.666;23.366;2022-09-20T07:35:34;95093.81;;;27.09;22.65
40205;BME280;26963;42.666;23.366;2022-09-20T07:38:03;95056.94;;;27.10;22.89
40205;BME280;26963;42.666;23.366;2022-09-20T07:40:29;95096.75;;;27.72;22.29
40205;BME280;26963;42.666;23.366;2022-09-20T07:42:55;95096.34;;;27.77;21.72
40205;BME280;26963;42.666;23.366;2022-09-20T07:45:22;95090.50;;;27.68;21.28
40205;BME280;26963;42.666;23.366;2022-09-20T07:47:53;95058.38;;;27.54;21.99
40205;BME280;26963;42.666;23.366;2022-09-20T07:50:39;95104.56;;;27.85;22.09
40205;BME280;26963;42.666;23.366;2022-09-20T07:53:04;95089.78;;;27.53;21.91
40205;BME280;26963;42.666;23.366;2022-09-20T07:55:33;95095.94;;;27.82;22.12
40205;BME280;26963;42.666;23.366;2022-09-20T07:57:59;95096.19;;;28.13;21.74
40205;BME280;26963;42.666;23.366;2022-09-20T08:00:25;95090.41;;;27.90;21.90
40205;BME280;26963;42.666;23.366;2022-09-20T08:02:57;95060.03;;;27.23;22.63
40205;BME280;26963;42.666;23.366;2022-09-20T08:05:26;95067.06;;;27.31;22.33
40205;BME280;26963;42.666;23.366;2022-09-20T08:07:51;95055.34;;;27.16;21.91
40205;BME280;26963;42.666;23.366;2022-09-20T08:10:20;95092.53;;;27.49;22.13
40205;BME280;26963;42.666;23.366;2022-09-20T08:12:46;94999.28;;;26.99;21.99
40205;BME280;26963;42.666;23.366;2022-09-20T08:15:12;95093.59;;;27.77;21.32
40205;BME280;26963;42.666;23.366;2022-09-20T08:17:40;95059.00;;;27.83;21.45
40205;BME280;26963;42.666;23.366;2022-09-20T08:20:06;95052.69;;;27.90;21.04
40205;BME280;26963;42.666;23.366;2022-09-20T08:22:35;95076.69;;;28.46;20.74
40205;BME280;26963;42.666;23.366;2022-09-20T08:25:03;95089.41;;;28.82;19.81
40205;BME280;26963;42.666;23.366;2022-09-20T08:27:29;95073.38;;;28.69;19.39
40205;BME280;26963;42.666;23.366;2022-09-20T08:29:56;95085.69;;;28.99;19.21
40205;BME280;26963;42.666;23.366;2022-09-20T08:32:21;95084.91;;;29.02;19.22
40205;BME280;26963;42.666;23.366;2022-09-20T08:34:47;95079.53;;;28.84;19.05
40205;BME280;26963;42.666;23.366;2022-09-20T08:37:20;95036.25;;;27.79;19.88
40205;BME280;26963;42.666;23.366;2022-09-20T08:39:48;95047.47;;;27.22;19.99
40205;BME280;26963;42.666;23.366;2022-09-20T08:42:30;95075.41;;;26.91;21.40
40205;BME280;26963;42.666;23.366;2022-09-20T08:45:24;95078.72;;;25.54;22.24
40205;BME280;26963;42.666;23.366;2022-09-20T08:48:01;95060.56;;;25.24;22.60
40205;BME280;26963;42.666;23.366;2022-09-20T08:50:29;95086.53;;;24.82;23.37
40205;BME280;26963;42.666;23.366;2022-09-20T08:53:00;95069.16;;;24.60;24.09
40205;BME280;26963;42.666;23.366;2022-09-20T08:55:29;95077.34;;;24.56;23.38
40205;BME280;26963;42.666;23.366;2022-09-20T08:58:03;95035.78;;;24.36;23.86
40205;BME280;26963;42.666;23.366;2022-09-20T09:00:31;95049.50;;;24.47;24.26
40205;BME280;26963;42.666;23.366;2022-09-20T09:03:05;95046.97;;;24.72;23.28
40205;BME280;26963;42.666;23.366;2022-09-20T09:05:36;95065.78;;;24.74;23.65
40205;BME280;26963;42.666;23.366;2022-09-20T09:08:08;95051.63;;;24.65;23.31
40205;BME280;26963;42.666;23.366;2022-09-20T09:10:41;95046.22;;;24.23;22.82
40205;BME280;26963;42.666;23.366;2022-09-20T09:13:16;95017.66;;;23.42;23.88
40205;BME280;26963;42.666;23.366;2022-09-20T09:15:50;95018.19;;;23.17;24.00
40205;BME280;26963;42.666;23.366;2022-09-20T09:18:17;95043.66;;;23.28;24.19
40205;BME280;26963;42.666;23.366;2022-09-20T09:20:43;95002.50;;;23.14;24.45
40205;BME280;26963;42.666;23.366;2022-09-20T09:23:22;95033.22;;;23.72;25.00
40205;BME280;26963;42.666;23.366;2022-09-20T09:25:51;95052.03;;;24.22;24.34
40205;BME280;26963;42.666;23.366;2022-09-20T09:28:21;95034.88;;;24.21;23.82
40205;BME280;26963;42.666;23.366;2022-09-20T09:30:50;95032.75;;;24.04;24.91
40205;BME280;26963;42.666;23.366;2022-09-20T09:33:44;95033.00;;;23.88;24.72
40205;BME280;26963;42.666;23.366;2022-09-20T09:36:16;95048.50;;;23.80;24.83
40205;BME280;26963;42.666;23.366;2022-09-20T09:38:45;95052.25;;;23.65;24.67
40205;BME280;26963;42.666;23.366;2022-09-20T09:41:21;95025.28;;;23.25;24.88
40205;BME280;26963;42.666;23.366;2022-09-20T09:44:01;95036.19;;;23.25;25.10
40205;BME280;26963;42.666;23.366;2022-09-20T09:46:31;95030.25;;;23.16;25.71
40205;BME280;26963;42.666;23.366;2022-09-20T09:52:11;95029.88;;;23.89;24.72
40205;BME280;26963;42.666;23.366;2022-09-20T09:54:47;95026.41;;;23.92;24.63
40205;BME280;26963;42.666;23.366;2022-09-20T10:02:57;95024.56;;;24.04;24.44
40205;BME280;26963;42.666;23.366;2022-09-20T10:05:32;95022.31;;;24.13;24.58
40205;BME280;26963;42.666;23.366;2022-09-20T10:11:54;95021.97;;;23.81;25.47
40205;BME280;26963;42.666;23.366;2022-09-20T10:36:23;95023.94;;;22.31;27.09
40205;BME280;26963;42.666;23.366;2022-09-20T10:39:18;95014.75;;;22.40;27.44
40205;BME280;26963;42.666;23.366;2022-09-20T10:47:18;94999.56;;;22.96;25.01
40205;BME280;26963;42.666;23.366;2022-09-20T10:56:02;95008.84;;;23.18;25.10
40205;BME280;26963;42.666;23.366;2022-09-20T11:01:48;95003.31;;;23.15;24.70
40205;BME280;26963;42.666;23.366;2022-09-20T11:10:05;94995.72;;;23.01;24.57
40205;BME280;26963;42.666;23.366;2022-09-20T11:12:48;94997.00;;;22.80;25.10
40205;BME280;26963;42.666;23.366;2022-09-20T11:15:39;94995.03;;;22.77;24.88
40205;BME280;26963;42.666;23.366;2022-09-20T11:18:21;94988.75;;;22.73;25.47
40205;BME280;26963;42.666;23.366;2022-09-20T11:20:56;94962.53;;;22.38;24.83
40205;BME280;26963;42.666;23.366;2022-09-20T11:23:47;94983.44;;;22.57;25.84
40205;BME280;26963;42.666;23.366;2022-09-20T11:26:50;94988.13;;;22.56;25.27
40205;BME280;26963;42.666;23.366;2022-09-20T11:29:25;94998.66;;;22.58;25.78
40205;BME280;26963;42.666;23.366;2022-09-20T11:31:55;94991.50;;;22.46;25.54
40205;BME280;26963;42.666;23.366;2022-09-20T11:37:38;94988.78;;;22.46;25.16
40205;BME280;26963;42.666;23.366;2022-09-20T11:40:34;94985.78;;;22.31;25.28
40205;BME280;26963;42.666;23.366;2022-09-20T11:43:03;94942.19;;;22.05;25.42
40205;BME280;26963;42.666;23.366;2022-09-20T11:45:36;94914.09;;;21.74;25.70
40205;BME280;26963;42.666;23.366;2022-09-20T11:48:17;94969.06;;;22.06;26.22
40205;BME280;26963;42.666;23.366;2022-09-20T11:54:02;94967.72;;;21.96;26.19
40205;BME280;26963;42.666;23.366;2022-09-20T11:56:36;94916.91;;;21.58;26.70
40205;BME280;26963;42.666;23.366;2022-09-20T11:59:26;94944.31;;;21.69;26.33
40205;BME280;26963;42.666;23.366;2022-09-20T12:01:55;94889.47;;;21.24;26.60
40205;BME280;26963;42.666;23.366;2022-09-20T12:04:27;94960.31;;;21.50;26.95
40205;BME280;26963;42.666;23.366;2022-09-20T12:07:04;94949.50;;;21.54;27.11
40205;BME280;26963;42.666;23.366;2022-09-20T12:09:39;94951.94;;;21.59;27.67
40205;BME280;26963;42.666;23.366;2022-09-20T12:12:40;94965.56;;;21.59;27.01
40205;BME280;26963;42.666;23.366;2022-09-20T12:23:43;94955.00;;;21.34;27.56
40205;BME280;26963;42.666;23.366;2022-09-20T12:39:24;94937.28;;;20.82;27.38
40205;BME280;26963;42.666;23.366;2022-09-20T12:41:54;94890.44;;;20.53;27.88
40205;BME280;26963;42.666;23.366;2022-09-20T12:44:25;94941.13;;;20.81;27.22
40205;BME280;26963;42.666;23.366;2022-09-20T12:46:58;94905.16;;;20.32;27.47
40205;BME280;26963;42.666;23.366;2022-09-20T13:03:33;94946.03;;;20.20;28.48
40205;BME280;26963;42.666;23.366;2022-09-20T13:11:23;94875.72;;;19.67;27.99
40205;BME280;26963;42.666;23.366;2022-09-20T13:19:06;94929.56;;;19.81;28.35
40205;BME280;26963;42.666;23.366;2022-09-20T13:21:44;94916.81;;;19.65;28.22
40205;BME280;26963;42.666;23.366;2022-09-20T13:24:15;94889.66;;;19.33;27.96
40205;BME280;26963;42.666;23.366;2022-09-20T13:26:44;94884.66;;;19.19;28.59
40205;BME280;26963;42.666;23.366;2022-09-20T13:29:33;94944.28;;;19.48;28.43
40205;BME280;26963;42.666;23.366;2022-09-20T13:32:28;94948.13;;;19.47;28.87
40205;BME280;26963;42.666;23.366;2022-09-20T13:37:31;94918.63;;;19.29;28.24
40205;BME280;26963;42.666;23.366;2022-09-20T13:39:57;94914.84;;;19.18;27.67
40205;BME280;26963;42.666;23.366;2022-09-20T13:42:24;94894.06;;;18.94;28.52
40205;BME280;26963;42.666;23.366;2022-09-20T13:44:53;94929.03;;;19.27;28.46
40205;BME280;26963;42.666;23.366;2022-09-20T13:47:27;94961.78;;;19.34;28.32
40205;BME280;26963;42.666;23.366;2022-09-20T13:50:21;94934.31;;;19.36;28.38
40205;BME280;26963;42.666;23.366;2022-09-20T13:52:53;94901.53;;;19.13;28.04
40205;BME280;26963;42.666;23.366;2022-09-20T13:55:35;94942.94;;;19.26;27.67
40205;BME280;26963;42.666;23.366;2022-09-20T13:58:15;94882.66;;;18.88;27.72
40205;BME280;26963;42.666;23.366;2022-09-20T14:00:47;94902.75;;;18.99;28.13
40205;BME280;26963;42.666;23.366;2022-09-20T14:03:15;94933.75;;;19.30;28.30
40205;BME280;26963;42.666;23.366;2022-09-20T14:05:45;94914.41;;;19.16;28.12
40205;BME280;26963;42.666;23.366;2022-09-20T14:08:26;94930.41;;;19.21;28.21
40205;BME280;26963;42.666;23.366;2022-09-20T14:11:11;94937.84;;;19.24;27.73
40205;BME280;26963;42.666;23.366;2022-09-20T14:13:40;94909.66;;;19.13;27.71
40205;BME280;26963;42.666;23.366;2022-09-20T14:16:07;94881.44;;;18.85;28.54
40205;BME280;26963;42.666;23.366;2022-09-20T14:18:39;94924.81;;;19.14;28.74
40205;BME280;26963;42.666;23.366;2022-09-20T14:21:09;94874.06;;;18.70;29.38
40205;BME280;26963;42.666;23.366;2022-09-20T14:28:50;94927.09;;;19.12;31.32
40205;BME280;26963;42.666;23.366;2022-09-20T14:31:30;94920.75;;;19.07;29.99
40205;BME280;26963;42.666;23.366;2022-09-20T14:34:14;94924.94;;;19.05;30.91
40205;BME280;26963;42.666;23.366;2022-09-20T14:36:50;94937.28;;;19.02;31.16
40205;BME280;26963;42.666;23.366;2022-09-20T14:39:26;94917.22;;;18.91;31.15
40205;BME280;26963;42.666;23.366;2022-09-20T14:41:52;94903.75;;;18.66;31.01
40205;BME280;26963;42.666;23.366;2022-09-20T14:44:31;94911.88;;;18.66;31.34
40205;BME280;26963;42.666;23.366;2022-09-20T14:46:58;94913.28;;;18.48;30.50
40205;BME280;26963;42.666;23.366;2022-09-20T14:49:32;94898.22;;;18.34;30.25
40205;BME280;26963;42.666;23.366;2022-09-20T14:55:21;94948.94;;;18.62;30.74
40205;BME280;26963;42.666;23.366;2022-09-20T14:58:06;94951.44;;;18.55;30.73
40205;BME280;26963;42.666;23.366;2022-09-20T15:01:21;94951.72;;;18.66;31.32
40205;BME280;26963;42.666;23.366;2022-09-20T15:03:51;94940.81;;;18.62;31.03
40205;BME280;26963;42.666;23.366;2022-09-20T15:06:19;94952.78;;;18.61;31.44
40205;BME280;26963;42.666;23.366;2022-09-20T15:08:45;94941.47;;;18.59;30.86
40205;BME280;26963;42.666;23.366;2022-09-20T15:11:15;94946.13;;;18.58;30.83
40205;BME280;26963;42.666;23.366;2022-09-20T15:13:41;94956.41;;;18.53;31.81
40205;BME280;26963;42.666;23.366;2022-09-20T15:16:07;94927.88;;;18.43;31.53
40205;BME280;26963;42.666;23.366;2022-09-20T15:18:39;94939.94;;;18.46;31.64
40205;BME280;26963;42.666;23.366;2022-09-20T15:21:08;94902.84;;;18.21;32.00
40205;BME280;26963;42.666;23.366;2022-09-20T15:23:42;94936.56;;;18.36;32.32
40205;BME280;26963;42.666;23.366;2022-09-20T15:26:09;94925.72;;;18.36;32.00
40205;BME280;26963;42.666;23.366;2022-09-20T15:28:37;94952.34;;;18.47;32.26
40205;BME280;26963;42.666;23.366;2022-09-20T15:31:03;94934.34;;;18.26;32.58
40205;BME280;26963;42.666;23.366;2022-09-20T15:33:41;94894.91;;;18.00;32.63
40205;BME280;26963;42.666;23.366;2022-09-20T15:36:09;94943.34;;;18.30;32.64
40205;BME280;26963;42.666;23.366;2022-09-20T15:38:34;94940.75;;;18.21;33.03
40205;BME280;26963;42.666;23.366;2022-09-20T15:41:03;94856.66;;;17.65;33.69
40205;BME280;26963;42.666;23.366;2022-09-20T15:43:29;94898.47;;;17.92;33.84
40205;BME280;26963;42.666;23.366;2022-09-20T15:45:57;94902.75;;;17.93;34.00
40205;BME280;26963;42.666;23.366;2022-09-20T15:48:26;94901.06;;;17.88;34.03
40205;BME280;26963;42.666;23.366;2022-09-20T15:51:08;94961.41;;;18.14;34.31
40205;BME280;26963;42.666;23.366;2022-09-20T15:53:45;94918.22;;;17.80;34.10
40205;BME280;26963;42.666;23.366;2022-09-20T15:56:15;94896.91;;;17.66;33.88
40205;BME280;26963;42.666;23.366;2022-09-20T15:58:48;94965.34;;;17.91;33.90
40205;BME280;26963;42.666;23.366;2022-09-20T16:01:18;94958.94;;;17.84;33.90
40205;BME280;26963;42.666;23.366;2022-09-20T16:03:44;94916.63;;;17.54;33.76
40205;BME280;26963;42.666;23.366;2022-09-20T16:06:15;94948.56;;;17.73;34.47
40205;BME280;26963;42.666;23.366;2022-09-20T16:08:42;94921.47;;;17.49;34.40
40205;BME280;26963;42.666;23.366;2022-09-20T16:11:09;94929.13;;;17.47;34.88
40205;BME280;26963;42.666;23.366;2022-09-20T16:13:38;94965.66;;;17.65;35.14
40205;BME280;26963;42.666;23.366;2022-09-20T16:16:08;94965.66;;;17.53;35.91
40205;BME280;26963;42.666;23.366;2022-09-20T16:18:37;94982.56;;;17.50;35.80
40205;BME280;26963;42.666;23.366;2022-09-20T16:21:22;94973.16;;;17.35;36.07
40205;BME280;26963;42.666;23.366;2022-09-20T16:23:55;94971.25;;;17.35;36.10
40205;BME280;26963;42.666;23.366;2022-09-20T16:26:23;94959.72;;;17.26;36.38
40205;BME280;26963;42.666;23.366;2022-09-20T16:28:51;94975.38;;;17.20;36.20
40205;BME280;26963;42.666;23.366;2022-09-20T16:31:39;94982.00;;;17.10;36.32
40205;BME280;26963;42.666;23.366;2022-09-20T16:34:25;94980.28;;;17.06;36.35
40205;BME280;26963;42.666;23.366;2022-09-20T16:37:13;94984.00;;;17.01;36.70
40205;BME280;26963;42.666;23.366;2022-09-20T16:39:47;94978.97;;;16.91;36.94
40205;BME280;26963;42.666;23.366;2022-09-20T16:42:13;94977.75;;;16.79;37.06
40205;BME280;26963;42.666;23.366;2022-09-20T16:44:42;94976.72;;;16.72;37.25
40205;BME280;26963;42.666;23.366;2022-09-20T16:47:13;94973.09;;;16.68;37.46
40205;BME280;26963;42.666;23.366;2022-09-20T16:49:44;94969.34;;;16.60;37.73
40205;BME280;26963;42.666;23.366;2022-09-20T16:52:16;94982.38;;;16.58;37.74
40205;BME280;26963;42.666;23.366;2022-09-20T16:54:45;94990.03;;;16.56;38.05
40205;BME280;26963;42.666;23.366;2022-09-20T16:57:16;94940.59;;;16.13;38.12
40205;BME280;26963;42.666;23.366;2022-09-20T16:59:41;94953.13;;;16.18;38.10
40205;BME280;26963;42.666;23.366;2022-09-20T17:02:09;94946.84;;;16.05;38.34
40205;BME280;26963;42.666;23.366;2022-09-20T17:04:41;94996.19;;;16.35;38.45
40205;BME280;26963;42.666;23.366;2022-09-20T17:07:08;95008.59;;;16.36;38.80
40205;BME280;26963;42.666;23.366;2022-09-20T17:09:36;95003.84;;;16.33;38.86
40205;BME280;26963;42.666;23.366;2022-09-20T17:12:02;94956.38;;;16.02;38.73
40205;BME280;26963;42.666;23.366;2022-09-20T17:14:36;95002.13;;;16.28;38.82
40205;BME280;26963;42.666;23.366;2022-09-20T17:17:01;94959.44;;;15.92;39.04
40205;BME280;26963;42.666;23.366;2022-09-20T17:19:30;94975.44;;;15.97;39.22
40205;BME280;26963;42.666;23.366;2022-09-20T17:21:56;94965.97;;;15.91;39.13
40205;BME280;26963;42.666;23.366;2022-09-20T17:24:22;95006.03;;;16.10;39.37
40205;BME280;26963;42.666;23.366;2022-09-20T17:26:52;94987.88;;;15.89;39.51
40205;BME280;26963;42.666;23.366;2022-09-20T17:29:41;94995.81;;;15.86;39.79
40205;BME280;26963;42.666;23.366;2022-09-20T17:32:40;95019.59;;;16.01;39.69
40205;BME280;26963;42.666;23.366;2022-09-20T17:35:17;95014.03;;;15.97;39.35
40205;BME280;26963;42.666;23.366;2022-09-20T17:37:52;94988.25;;;15.70;39.59
40205;BME280;26963;42.666;23.366;2022-09-20T17:40:18;94946.63;;;15.41;39.65
40205;BME280;26963;42.666;23.366;2022-09-20T17:42:51;95019.94;;;15.82;39.89
40205;BME280;26963;42.666;23.366;2022-09-20T17:45:19;94915.78;;;15.12;39.80
40205;BME280;26963;42.666;23.366;2022-09-20T17:47:47;95015.50;;;15.77;39.91
40205;BME280;26963;42.666;23.366;2022-09-20T17:50:15;94990.19;;;15.61;39.97
40205;BME280;26963;42.666;23.366;2022-09-20T17:52:44;94955.69;;;15.37;40.10
40205;BME280;26963;42.666;23.366;2022-09-20T17:55:10;95025.50;;;15.77;39.88
40205;BME280;26963;42.666;23.366;2022-09-20T17:57:36;95001.91;;;15.65;40.21
40205;BME280;26963;42.666;23.366;2022-09-20T18:00:06;95019.97;;;15.73;40.15
40205;BME280;26963;42.666;23.366;2022-09-20T18:02:32;95016.50;;;15.64;40.40
40205;BME280;26963;42.666;23.366;2022-09-20T18:05:00;95021.13;;;15.55;40.46
40205;BME280;26963;42.666;23.366;2022-09-20T18:07:29;95031.59;;;15.56;40.62
40205;BME280;26963;42.666;23.366;2022-09-20T18:09:58;95018.78;;;15.44;40.61
40205;BME280;26963;42.666;23.366;2022-09-20T18:12:40;95011.66;;;15.40;40.61
40205;BME280;26963;42.666;23.366;2022-09-20T18:15:09;95030.19;;;15.50;40.96
40205;BME280;26963;42.666;23.366;2022-09-20T18:17:34;95016.41;;;15.43;40.88
40205;BME280;26963;42.666;23.366;2022-09-20T18:20:03;95035.75;;;15.45;40.91
40205;BME280;26963;42.666;23.366;2022-09-20T18:22:30;95006.78;;;15.24;40.88
40205;BME280;26963;42.666;23.366;2022-09-20T18:25:07;95055.56;;;15.40;41.12